Time;durP1;ratioP1;P1;durP2;ratioP2;P2;SDS_P1;SDS_P2;PMS_P1;PMS_P2;Temp;Humidity;BMP_temperature;BMP_pressure;BME280_temperature;BME280_humidity;BME280_pressure;Samples;Min_cycle;Max_cycle;Signal;HPM_P1;HPM_P2
2023/08/31 00:00:00;;;;;;;9.70;5.07;;;;;;;;;;2611835;47;20527;-74
2023/08/31 00:02:26;;;;;;;12.20;5.00;;;;;;;;;;2612597;54;20430;-75
2023/08/31 00:04:53;;;;;;;10.83;4.47;;;;;;;;;;2612783;54;20380;-75
2023/08/31 00:07:20;;;;;;;6.73;5.03;;;;;;;;;;2611957;54;20411;-75
2023/08/31 00:09:46;;;;;;;13.50;5.13;;;;;;;;;;2612584;54;20482;-75
2023/08/31 00:12:12;;;;;;;11.93;4.90;;;;;;;;;;2612327;54;20424;-75
2023/08/31 00:14:38;;;;;;;10.30;4.67;;;;;;;;;;2612068;47;20439;-76
2023/08/31 00:17:05;;;;;;;9.10;5.10;;;;;;;;;;2612576;54;20997;-76
2023/08/31 00:19:31;;;;;;;8.13;4.60;;;;;;;;;;2612348;54;20509;-76
2023/08/31 00:21:57;;;;;;;9.63;6.53;;;;;;;;;;2612485;54;20419;-76
2023/08/31 00:24:28;;;;;;;10.13;4.83;;;;;;;;;;2613376;54;20443;-76
2023/08/31 00:26:54;;;;;;;10.10;5.50;;;;;;;;;;2613623;39;20920;-77
2023/08/31 00:29:20;;;;;;;9.97;5.13;;;;;;;;;;2613965;54;20797;-76
2023/08/31 00:31:48;;;;;;;7.60;4.63;;;;;;;;;;2613415;54;20404;-77
2023/08/31 00:34:17;;;;;;;11.63;5.07;;;;;;;;;;2612766;54;20407;-76
2023/08/31 00:36:43;;;;;;;10.00;5.90;;;;;;;;;;2613957;54;20400;-77
2023/08/31 00:39:10;;;;;;;7.70;5.33;;;;;;;;;;2613877;54;20408;-76
2023/08/31 00:41:36;;;;;;;6.97;4.40;;;;;;;;;;2614192;54;20986;-75
2023/08/31 00:44:04;;;;;;;8.70;4.73;;;;;;;;;;2613242;54;20515;-75
2023/08/31 00:46:31;;;;;;;10.50;5.03;;;;;;;;;;2613933;54;20435;-76
2023/08/31 00:48:58;;;;;;;8.40;4.80;;;;;;;;;;2613724;54;20981;-77
2023/08/31 00:51:24;;;;;;;11.00;5.97;;;;;;;;;;2613445;54;20411;-76
2023/08/31 00:53:53;;;;;;;8.77;5.10;;;;;;;;;;2613432;54;20396;-76
2023/08/31 00:56:19;;;;;;;10.53;5.10;;;;;;;;;;2613875;39;20814;-76
2023/08/31 00:58:46;;;;;;;8.10;5.20;;;;;;;;;;2613358;47;20419;-76
2023/08/31 01:01:19;;;;;;;5.07;4.43;;;;;;;;;;2612514;51;20426;-76
2023/08/31 01:04:04;;;;;;;13.60;5.80;;;;;;;;;;2612746;47;20912;-76
2023/08/31 01:06:40;;;;;;;9.40;5.77;;;;;;;;;;2612885;54;20419;-77
2023/08/31 01:09:14;;;;;;;9.23;5.97;;;;;;;;;;2613053;54;20446;-76
2023/08/31 01:11:54;;;;;;;10.20;6.37;;;;;;;;;;2613243;39;20813;-73
2023/08/31 01:14:24;;;;;;;8.83;5.40;;;;;;;;;;2612040;54;20567;-75
2023/08/31 01:16:51;;;;;;;9.83;5.40;;;;;;;;;;2611509;54;20431;-74
2023/08/31 01:19:29;;;;;;;19.57;6.97;;;;;;;;;;2612354;54;20408;-71
2023/08/31 01:21:58;;;;;;;8.40;5.70;;;;;;;;;;2612148;54;20415;-75
2023/08/31 01:24:25;;;;;;;12.83;6.27;;;;;;;;;;2612939;54;20396;-74
2023/08/31 01:26:52;;;;;;;7.00;5.93;;;;;;;;;;2613933;31;21028;-73
2023/08/31 01:29:19;;;;;;;8.23;6.23;;;;;;;;;;2613325;54;20418;-73
2023/08/31 01:31:45;;;;;;;7.63;5.37;;;;;;;;;;2613194;54;20411;-73
2023/08/31 01:34:11;;;;;;;11.93;5.77;;;;;;;;;;2612485;54;20966;-75
2023/08/31 01:36:39;;;;;;;9.70;6.90;;;;;;;;;;2613176;54;20419;-73
2023/08/31 01:39:14;;;;;;;8.73;6.10;;;;;;;;;;2613125;54;20444;-73
2023/08/31 01:41:44;;;;;;;8.23;5.90;;;;;;;;;;2612559;47;20419;-73
2023/08/31 01:44:14;;;;;;;7.80;5.90;;;;;;;;;;2612710;54;20415;-74
2023/08/31 01:46:40;;;;;;;10.87;5.67;;;;;;;;;;2612795;54;20418;-72
2023/08/31 01:49:06;;;;;;;8.07;5.77;;;;;;;;;;2613250;54;20434;-73
2023/08/31 01:51:32;;;;;;;8.60;6.13;;;;;;;;;;2612523;54;20414;-73
2023/08/31 01:53:58;;;;;;;8.50;6.27;;;;;;;;;;2611933;54;20411;-74
2023/08/31 01:56:25;;;;;;;9.57;6.57;;;;;;;;;;2612940;54;20938;-73
2023/08/31 01:58:51;;;;;;;9.17;6.60;;;;;;;;;;2613239;54;20407;-72
2023/08/31 02:01:17;;;;;;;9.17;5.97;;;;;;;;;;2611941;54;20419;-72
2023/08/31 02:03:44;;;;;;;8.50;6.23;;;;;;;;;;2612158;54;20411;-73
2023/08/31 02:06:10;;;;;;;8.43;6.33;;;;;;;;;;2611280;47;20502;-73
2023/08/31 02:08:36;;;;;;;8.30;5.97;;;;;;;;;;2613414;39;20798;-74
2023/08/31 02:11:02;;;;;;;11.10;5.80;;;;;;;;;;2613535;54;20447;-71
2023/08/31 02:13:28;;;;;;;6.43;5.57;;;;;;;;;;2611571;47;20434;-72
2023/08/31 02:15:54;;;;;;;11.30;7.17;;;;;;;;;;2612639;39;20852;-72
2023/08/31 02:18:20;;;;;;;8.67;6.33;;;;;;;;;;2612836;54;20403;-74
2023/08/31 02:20:47;;;;;;;10.83;6.03;;;;;;;;;;2612922;47;20415;-76
2023/08/31 02:23:13;;;;;;;8.57;5.63;;;;;;;;;;2613003;54;20427;-75
2023/08/31 02:25:40;;;;;;;10.33;6.27;;;;;;;;;;2613995;46;20430;-75
2023/08/31 02:28:06;;;;;;;11.20;6.47;;;;;;;;;;2613946;54;20420;-76
2023/08/31 02:30:32;;;;;;;8.93;6.53;;;;;;;;;;2614133;54;20526;-75
2023/08/31 02:32:58;;;;;;;9.50;5.73;;;;;;;;;;2613687;54;20407;-75
2023/08/31 02:35:24;;;;;;;9.43;6.73;;;;;;;;;;2613804;54;20424;-76
2023/08/31 02:37:50;;;;;;;9.03;6.07;;;;;;;;;;2613887;54;20427;-75
2023/08/31 02:40:17;;;;;;;8.13;6.20;;;;;;;;;;2613283;54;20423;-75
2023/08/31 02:42:43;;;;;;;8.90;6.17;;;;;;;;;;2613013;54;20427;-75
2023/08/31 02:45:10;;;;;;;18.47;7.30;;;;;;;;;;2612749;31;20881;-76
2023/08/31 02:47:37;;;;;;;13.70;6.97;;;;;;;;;;2613530;54;20420;-75
2023/08/31 02:50:03;;;;;;;12.33;6.00;;;;;;;;;;2614126;54;20391;-75
2023/08/31 02:52:29;;;;;;;10.17;6.50;;;;;;;;;;2613277;54;20391;-75
2023/08/31 02:54:55;;;;;;;8.03;6.43;;;;;;;;;;2612279;54;20442;-76
2023/08/31 02:57:21;;;;;;;11.80;7.40;;;;;;;;;;2612655;54;21024;-75
2023/08/31 02:59:51;;;;;;;8.80;6.03;;;;;;;;;;2613901;39;21228;-75
2023/08/31 03:02:18;;;;;;;7.40;5.90;;;;;;;;;;2612989;54;20662;-75
2023/08/31 03:04:45;;;;;;;8.37;6.33;;;;;;;;;;2612440;54;20411;-76
2023/08/31 03:07:13;;;;;;;10.43;7.10;;;;;;;;;;2613628;54;20551;-75
2023/08/31 03:09:39;;;;;;;7.80;5.90;;;;;;;;;;2613881;54;20483;-75
2023/08/31 03:12:06;;;;;;;10.57;6.40;;;;;;;;;;2613900;54;20419;-74
2023/08/31 03:14:32;;;;;;;11.93;6.47;;;;;;;;;;2613874;54;20430;-75
2023/08/31 03:16:58;;;;;;;8.17;5.63;;;;;;;;;;2613858;54;20463;-75
2023/08/31 03:19:25;;;;;;;13.63;6.63;;;;;;;;;;2613631;54;20411;-76
2023/08/31 03:21:53;;;;;;;15.53;6.57;;;;;;;;;;2612874;47;20951;-75
2023/08/31 03:24:19;;;;;;;8.63;6.60;;;;;;;;;;2613351;54;20431;-76
2023/08/31 03:26:45;;;;;;;12.03;5.20;;;;;;;;;;2612732;47;20428;-76
2023/08/31 03:29:11;;;;;;;14.43;7.20;;;;;;;;;;2613707;54;20403;-76
2023/08/31 03:31:37;;;;;;;13.13;7.47;;;;;;;;;;2612557;47;20412;-76
2023/08/31 03:34:03;;;;;;;13.90;8.40;;;;;;;;;;2612101;47;20976;-76
2023/08/31 03:36:29;;;;;;;15.43;8.37;;;;;;;;;;2611703;54;20428;-76
2023/08/31 03:38:55;;;;;;;10.40;7.37;;;;;;;;;;2612070;54;20438;-76
2023/08/31 03:41:21;;;;;;;9.63;7.73;;;;;;;;;;2612840;54;20404;-76
2023/08/31 03:43:47;;;;;;;10.20;7.43;;;;;;;;;;2613186;54;20438;-76
2023/08/31 03:46:13;;;;;;;9.90;7.80;;;;;;;;;;2611238;47;20428;-76
2023/08/31 03:48:39;;;;;;;10.70;6.30;;;;;;;;;;2611947;54;20431;-76
2023/08/31 03:51:05;;;;;;;17.40;8.67;;;;;;;;;;2612020;47;20459;-75
2023/08/31 03:53:31;;;;;;;9.43;7.50;;;;;;;;;;2612011;54;20429;-75
2023/08/31 03:55:57;;;;;;;11.00;7.80;;;;;;;;;;2612616;54;20534;-75
2023/08/31 03:58:23;;;;;;;11.07;9.03;;;;;;;;;;2613243;39;20813;-75
2023/08/31 04:00:50;;;;;;;13.03;8.33;;;;;;;;;;2612458;54;20400;-75
2023/08/31 04:03:16;;;;;;;14.13;8.23;;;;;;;;;;2612221;54;20526;-76
2023/08/31 04:05:42;;;;;;;13.33;7.97;;;;;;;;;;2613014;54;21091;-75
2023/08/31 04:08:08;;;;;;;17.30;9.73;;;;;;;;;;2612043;54;20408;-76
2023/08/31 04:10:34;;;;;;;15.37;10.10;;;;;;;;;;2612413;54;20415;-76
2023/08/31 04:13:00;;;;;;;11.90;9.20;;;;;;;;;;2611958;54;20542;-75
2023/08/31 04:15:26;;;;;;;16.47;9.97;;;;;;;;;;2613443;54;20408;-76
2023/08/31 04:17:52;;;;;;;14.03;9.63;;;;;;;;;;2612761;54;21017;-75
2023/08/31 04:20:19;;;;;;;14.67;10.40;;;;;;;;;;2613426;47;20424;-75
2023/08/31 04:22:46;;;;;;;16.07;10.87;;;;;;;;;;2613096;39;20759;-76
2023/08/31 04:25:12;;;;;;;20.10;11.67;;;;;;;;;;2613774;54;20386;-76
2023/08/31 04:27:41;;;;;;;14.50;10.50;;;;;;;;;;2613739;54;20424;-76
2023/08/31 04:30:07;;;;;;;18.10;9.57;;;;;;;;;;2613089;54;20621;-75
2023/08/31 04:32:33;;;;;;;17.63;11.00;;;;;;;;;;2612804;54;20403;-76
2023/08/31 04:34:59;;;;;;;14.03;11.57;;;;;;;;;;2613256;54;20443;-76
2023/08/31 04:37:25;;;;;;;15.70;10.93;;;;;;;;;;2612936;54;20446;-76
2023/08/31 04:39:51;;;;;;;18.10;12.07;;;;;;;;;;2613295;54;20918;-72
2023/08/31 04:42:18;;;;;;;20.30;11.80;;;;;;;;;;2610477;54;20500;-75
2023/08/31 04:44:44;;;;;;;21.93;12.90;;;;;;;;;;2611897;54;20384;-75
2023/08/31 04:47:11;;;;;;;24.73;14.57;;;;;;;;;;2612529;54;20439;-76
2023/08/31 04:49:37;;;;;;;22.97;13.80;;;;;;;;;;2610297;54;20546;-75
2023/08/31 04:52:03;;;;;;;20.40;12.23;;;;;;;;;;2610826;47;20530;-75
2023/08/31 04:54:29;;;;;;;19.40;12.70;;;;;;;;;;2612443;54;20415;-76
2023/08/31 04:56:55;;;;;;;17.90;12.93;;;;;;;;;;2612488;54;20961;-75
2023/08/31 04:59:21;;;;;;;21.70;14.27;;;;;;;;;;2612059;54;20495;-74
2023/08/31 05:01:49;;;;;;;18.37;14.03;;;;;;;;;;2611698;54;20510;-76
2023/08/31 05:04:15;;;;;;;20.67;14.47;;;;;;;;;;2612231;54;20399;-74
2023/08/31 05:06:41;;;;;;;19.77;11.83;;;;;;;;;;2611984;54;20588;-74
2023/08/31 05:09:08;;;;;;;18.17;12.60;;;;;;;;;;2611303;54;21057;-74
2023/08/31 05:11:34;;;;;;;23.20;16.37;;;;;;;;;;2610461;54;20627;-73
2023/08/31 05:14:00;;;;;;;20.90;13.50;;;;;;;;;;2610986;39;20954;-77
2023/08/31 05:16:26;;;;;;;21.90;13.07;;;;;;;;;;2612048;39;20940;-81
2023/08/31 05:18:52;;;;;;;25.27;16.13;;;;;;;;;;2610161;47;21292;-74
2023/08/31 05:21:19;;;;;;;16.33;11.30;;;;;;;;;;2607567;47;20391;-79
2023/08/31 05:23:45;;;;;;;18.67;13.80;;;;;;;;;;2610458;39;21079;-73
2023/08/31 05:26:11;;;;;;;21.13;15.67;;;;;;;;;;2612214;54;20403;-73
2023/08/31 05:28:37;;;;;;;22.70;14.80;;;;;;;;;;2611127;54;20903;-75
2023/08/31 05:31:05;;;;;;;21.57;15.80;;;;;;;;;;2611032;54;20426;-75
2023/08/31 05:33:33;;;;;;;27.00;15.73;;;;;;;;;;2610802;46;20584;-74
2023/08/31 05:36:02;;;;;;;22.90;14.73;;;;;;;;;;2611185;39;20847;-75
2023/08/31 05:38:28;;;;;;;23.10;15.27;;;;;;;;;;2612192;46;20455;-74
2023/08/31 05:40:54;;;;;;;21.20;14.90;;;;;;;;;;2610557;54;20411;-73
2023/08/31 05:43:20;;;;;;;21.07;13.97;;;;;;;;;;2610531;54;20395;-73
2023/08/31 05:45:46;;;;;;;21.47;11.63;;;;;;;;;;2610926;54;20423;-74
2023/08/31 05:48:12;;;;;;;17.70;12.87;;;;;;;;;;2611861;54;20398;-75
2023/08/31 05:50:38;;;;;;;19.33;15.57;;;;;;;;;;2612742;39;20832;-74
2023/08/31 05:53:05;;;;;;;21.73;14.30;;;;;;;;;;2610938;54;20483;-74
2023/08/31 05:55:32;;;;;;;19.10;12.97;;;;;;;;;;2610886;54;20420;-75
2023/08/31 05:57:59;;;;;;;18.47;15.23;;;;;;;;;;2610683;47;20419;-75
2023/08/31 06:00:25;;;;;;;22.53;13.80;;;;;;;;;;2611072;47;20463;-76
2023/08/31 06:02:51;;;;;;;17.13;14.10;;;;;;;;;;2611735;54;20985;-76
2023/08/31 06:05:17;;;;;;;17.57;12.97;;;;;;;;;;2612799;54;20407;-76
2023/08/31 06:07:44;;;;;;;14.37;10.77;;;;;;;;;;2612454;47;20422;-76
2023/08/31 06:10:10;;;;;;;17.53;12.10;;;;;;;;;;2613191;54;20450;-75
2023/08/31 06:12:36;;;;;;;14.33;11.23;;;;;;;;;;2610247;54;20978;-75
2023/08/31 06:15:03;;;;;;;14.67;10.60;;;;;;;;;;2610644;54;21020;-75
2023/08/31 06:17:29;;;;;;;11.80;10.60;;;;;;;;;;2610909;47;20440;-76
2023/08/31 06:19:56;;;;;;;16.03;9.50;;;;;;;;;;2613730;54;20427;-75
2023/08/31 06:22:24;;;;;;;12.37;9.83;;;;;;;;;;2613091;54;20406;-75
2023/08/31 06:24:51;;;;;;;11.80;9.40;;;;;;;;;;2613333;54;20403;-75
2023/08/31 06:27:17;;;;;;;14.47;9.63;;;;;;;;;;2613653;54;20531;-75
2023/08/31 06:29:44;;;;;;;11.30;8.23;;;;;;;;;;2613774;54;20420;-75
2023/08/31 06:32:10;;;;;;;11.53;7.93;;;;;;;;;;2613334;47;20993;-75
2023/08/31 06:34:37;;;;;;;9.57;8.17;;;;;;;;;;2613289;54;20423;-75
2023/08/31 06:37:05;;;;;;;16.10;9.13;;;;;;;;;;2613513;54;20419;-76
2023/08/31 06:39:31;;;;;;;13.40;8.23;;;;;;;;;;2612746;54;20411;-75
2023/08/31 06:41:58;;;;;;;8.50;7.60;;;;;;;;;;2611878;54;20993;-75
2023/08/31 06:44:24;;;;;;;10.30;7.60;;;;;;;;;;2610537;54;20417;-75
2023/08/31 06:46:50;;;;;;;12.03;8.23;;;;;;;;;;2610709;47;20432;-76
2023/08/31 06:49:16;;;;;;;11.03;8.47;;;;;;;;;;2613271;54;20424;-76
2023/08/31 06:51:43;;;;;;;9.33;8.17;;;;;;;;;;2613064;46;20442;-76
2023/08/31 06:54:09;;;;;;;10.13;7.20;;;;;;;;;;2610471;54;20427;-76
2023/08/31 06:56:36;;;;;;;8.67;6.93;;;;;;;;;;2613522;54;21281;-76
2023/08/31 06:59:02;;;;;;;7.93;7.13;;;;;;;;;;2612886;54;20420;-75
2023/08/31 07:01:29;;;;;;;9.50;7.10;;;;;;;;;;2610616;54;20415;-73
2023/08/31 07:03:56;;;;;;;10.03;6.83;;;;;;;;;;2610942;54;20436;-73
2023/08/31 07:06:22;;;;;;;7.10;6.40;;;;;;;;;;2612645;54;20403;-73
2023/08/31 07:08:49;;;;;;;10.27;7.17;;;;;;;;;;2612003;47;20415;-75
2023/08/31 07:11:15;;;;;;;8.30;6.50;;;;;;;;;;2611492;54;20416;-75
2023/08/31 07:13:41;;;;;;;9.10;6.63;;;;;;;;;;2612073;54;20420;-76
2023/08/31 07:16:07;;;;;;;13.00;6.70;;;;;;;;;;2613378;54;20423;-77
2023/08/31 07:18:35;;;;;;;8.40;6.40;;;;;;;;;;2612660;54;20470;-76
2023/08/31 07:21:01;;;;;;;10.53;6.23;;;;;;;;;;2612805;54;20424;-76
2023/08/31 07:23:27;;;;;;;6.60;5.10;;;;;;;;;;2611988;54;20392;-76
2023/08/31 07:25:58;;;;;;;7.40;5.80;;;;;;;;;;2611673;54;20435;-76
2023/08/31 07:28:24;;;;;;;6.23;5.60;;;;;;;;;;2613299;47;20419;-75
2023/08/31 07:30:50;;;;;;;8.60;6.13;;;;;;;;;;2613342;54;20427;-75
2023/08/31 07:33:16;;;;;;;7.33;6.63;;;;;;;;;;2611459;54;20416;-75
2023/08/31 07:35:42;;;;;;;6.00;5.13;;;;;;;;;;2610509;54;20475;-75
2023/08/31 07:38:08;;;;;;;6.33;5.73;;;;;;;;;;2611914;47;20423;-75
2023/08/31 07:40:34;;;;;;;7.33;5.53;;;;;;;;;;2611710;54;20416;-75
2023/08/31 07:43:01;;;;;;;8.03;6.00;;;;;;;;;;2611255;54;20435;-76
2023/08/31 07:45:28;;;;;;;7.33;4.90;;;;;;;;;;2610170;54;20448;-74
2023/08/31 07:47:54;;;;;;;6.40;5.40;;;;;;;;;;2611666;54;20996;-75
2023/08/31 07:50:20;;;;;;;7.77;5.47;;;;;;;;;;2611981;46;21002;-75
2023/08/31 07:52:46;;;;;;;7.50;5.40;;;;;;;;;;2614237;54;20424;-75
2023/08/31 07:55:13;;;;;;;6.00;5.40;;;;;;;;;;2612239;54;20408;-76
2023/08/31 07:57:40;;;;;;;5.67;5.10;;;;;;;;;;2613218;54;20428;-75
2023/08/31 08:00:06;;;;;;;5.80;4.90;;;;;;;;;;2610765;47;20971;-76
2023/08/31 08:02:32;;;;;;;5.37;4.93;;;;;;;;;;2610474;54;20420;-76
2023/08/31 08:04:58;;;;;;;6.50;4.80;;;;;;;;;;2610776;46;20407;-76
2023/08/31 08:07:24;;;;;;;5.83;5.10;;;;;;;;;;2611301;54;20395;-76
2023/08/31 08:09:50;;;;;;;7.57;6.40;;;;;;;;;;2610605;54;20490;-76
2023/08/31 08:12:16;;;;;;;7.20;4.77;;;;;;;;;;2610142;54;20408;-75
2023/08/31 08:14:42;;;;;;;5.30;4.90;;;;;;;;;;2609544;54;20411;-75
2023/08/31 08:17:08;;;;;;;6.13;5.37;;;;;;;;;;2609511;54;20436;-74
2023/08/31 08:19:34;;;;;;;5.87;5.37;;;;;;;;;;2609207;39;20855;-75
2023/08/31 08:22:00;;;;;;;6.80;5.80;;;;;;;;;;2608668;54;20395;-74
2023/08/31 08:24:27;;;;;;;7.80;5.63;;;;;;;;;;2607971;54;20427;-74
2023/08/31 08:26:53;;;;;;;6.47;5.87;;;;;;;;;;2608144;47;20450;-74
2023/08/31 08:29:19;;;;;;;6.63;6.00;;;;;;;;;;2608570;54;20414;-74
2023/08/31 08:31:45;;;;;;;5.77;5.37;;;;;;;;;;2608752;54;20435;-74
2023/08/31 08:34:12;;;;;;;6.87;6.27;;;;;;;;;;2608846;54;20432;-74
2023/08/31 08:36:38;;;;;;;6.50;5.90;;;;;;;;;;2609000;54;20439;-73
2023/08/31 08:39:04;;;;;;;5.20;4.80;;;;;;;;;;2609329;54;20993;-74
2023/08/31 08:41:30;;;;;;;5.80;5.30;;;;;;;;;;2609106;54;20422;-74
2023/08/31 08:43:58;;;;;;;6.00;5.50;;;;;;;;;;2610896;54;20458;-74
2023/08/31 08:46:24;;;;;;;6.07;5.57;;;;;;;;;;2609255;54;20542;-74
2023/08/31 08:48:50;;;;;;;6.30;5.67;;;;;;;;;;2607695;54;20424;-74
2023/08/31 08:51:16;;;;;;;8.63;6.93;;;;;;;;;;2609949;54;20423;-74
2023/08/31 08:53:43;;;;;;;7.43;6.83;;;;;;;;;;2612811;54;20416;-74
2023/08/31 08:56:10;;;;;;;8.57;6.83;;;;;;;;;;2612017;54;20432;-74
2023/08/31 08:58:36;;;;;;;8.50;6.00;;;;;;;;;;2612296;54;20411;-74
2023/08/31 09:01:02;;;;;;;6.90;6.30;;;;;;;;;;2609464;47;20411;-74
2023/08/31 09:03:28;;;;;;;7.10;6.50;;;;;;;;;;2611639;54;20399;-74
2023/08/31 09:05:54;;;;;;;8.47;6.40;;;;;;;;;;2611810;54;20511;-74
2023/08/31 09:08:27;;;;;;;7.40;6.90;;;;;;;;;;2612242;54;20415;-74
2023/08/31 09:10:56;;;;;;;6.83;6.20;;;;;;;;;;2612092;54;20458;-74
2023/08/31 09:13:26;;;;;;;7.90;6.77;;;;;;;;;;2612808;54;20404;-74
2023/08/31 09:15:52;;;;;;;7.67;6.87;;;;;;;;;;2612135;54;20419;-74
2023/08/31 09:18:24;;;;;;;7.23;6.53;;;;;;;;;;2610089;54;20435;-74
2023/08/31 09:20:50;;;;;;;8.70;7.53;;;;;;;;;;2610753;46;20422;-74
2023/08/31 09:23:17;;;;;;;9.10;7.30;;;;;;;;;;2611761;47;20435;-74
2023/08/31 09:25:44;;;;;;;8.90;5.77;;;;;;;;;;2610339;54;20400;-75
2023/08/31 09:28:10;;;;;;;7.40;6.70;;;;;;;;;;2610737;54;20416;-75
2023/08/31 09:30:37;;;;;;;7.17;6.60;;;;;;;;;;2610841;39;20723;-75
2023/08/31 09:33:22;;;;;;;11.70;7.00;;;;;;;;;;2610868;49;20406;-75
2023/08/31 09:35:50;;;;;;;8.40;7.63;;;;;;;;;;2612181;54;20423;-75
2023/08/31 09:38:19;;;;;;;7.17;6.67;;;;;;;;;;2612895;51;21059;-75
2023/08/31 09:40:45;;;;;;;7.67;7.17;;;;;;;;;;2613879;54;20542;-75
2023/08/31 09:43:12;;;;;;;7.80;7.20;;;;;;;;;;2612735;54;20420;-75
2023/08/31 09:45:38;;;;;;;7.50;7.07;;;;;;;;;;2612635;31;20902;-75
2023/08/31 09:48:06;;;;;;;7.80;7.30;;;;;;;;;;2610029;47;20419;-75
2023/08/31 09:50:33;;;;;;;6.87;6.40;;;;;;;;;;2612448;54;20430;-75
2023/08/31 09:53:03;;;;;;;10.00;7.87;;;;;;;;;;2613687;54;20434;-74
2023/08/31 09:55:30;;;;;;;7.50;7.00;;;;;;;;;;2614299;54;20399;-74
2023/08/31 09:57:58;;;;;;;7.73;7.13;;;;;;;;;;2613325;54;20431;-74
2023/08/31 10:00:28;;;;;;;7.53;7.00;;;;;;;;;;2611255;54;20443;-75
2023/08/31 10:02:56;;;;;;;6.80;6.40;;;;;;;;;;2611348;54;20523;-75
2023/08/31 10:05:24;;;;;;;6.73;6.33;;;;;;;;;;2611345;50;20983;-75
2023/08/31 10:07:53;;;;;;;7.20;6.70;;;;;;;;;;2612409;54;20435;-73
2023/08/31 10:10:20;;;;;;;7.47;6.87;;;;;;;;;;2612285;54;20455;-74
2023/08/31 10:12:48;;;;;;;7.53;6.93;;;;;;;;;;2611485;39;20929;-74
2023/08/31 10:15:14;;;;;;;7.97;7.27;;;;;;;;;;2611225;47;20412;-75
2023/08/31 10:17:41;;;;;;;7.93;7.20;;;;;;;;;;2611620;47;20428;-74
2023/08/31 10:20:08;;;;;;;8.23;7.47;;;;;;;;;;2611395;54;20442;-75
2023/08/31 10:22:37;;;;;;;6.70;6.30;;;;;;;;;;2612224;54;20416;-74
2023/08/31 10:25:07;;;;;;;8.20;7.53;;;;;;;;;;2611873;39;20834;-76
2023/08/31 10:27:52;;;;;;;7.57;7.17;;;;;;;;;;2611723;39;20807;-74
2023/08/31 10:30:25;;;;;;;8.73;7.83;;;;;;;;;;2611947;54;20534;-73
2023/08/31 10:33:10;;;;;;;8.77;8.07;;;;;;;;;;2609600;54;20502;-74
2023/08/31 10:35:42;;;;;;;8.10;7.60;;;;;;;;;;2609468;54;20419;-73
2023/08/31 10:38:15;;;;;;;7.57;7.07;;;;;;;;;;2607979;54;20433;-73
2023/08/31 10:40:41;;;;;;;8.00;7.40;;;;;;;;;;2609497;54;20522;-73
2023/08/31 10:43:16;;;;;;;7.47;6.87;;;;;;;;;;2609291;54;20411;-72
2023/08/31 10:45:45;;;;;;;6.90;6.50;;;;;;;;;;2609555;54;20415;-73
2023/08/31 10:48:14;;;;;;;7.20;6.60;;;;;;;;;;2610336;54;20419;-73
2023/08/31 10:50:43;;;;;;;7.90;7.30;;;;;;;;;;2609491;54;20495;-74
2023/08/31 10:53:11;;;;;;;6.93;6.50;;;;;;;;;;2611520;47;20411;-73
2023/08/31 10:55:53;;;;;;;8.67;7.87;;;;;;;;;;2613155;54;20464;-73
2023/08/31 10:58:20;;;;;;;7.97;7.27;;;;;;;;;;2613296;31;20911;-74
2023/08/31 11:00:53;;;;;;;7.60;7.00;;;;;;;;;;2612082;54;20424;-73
2023/08/31 11:03:19;;;;;;;8.00;7.30;;;;;;;;;;2612068;54;20424;-73
2023/08/31 11:05:52;;;;;;;7.53;7.13;;;;;;;;;;2612411;47;21105;-73
2023/08/31 11:08:23;;;;;;;7.83;7.30;;;;;;;;;;2612127;54;20411;-73
2023/08/31 11:10:49;;;;;;;8.40;7.57;;;;;;;;;;2613421;54;20497;-73
2023/08/31 11:13:20;;;;;;;7.87;7.37;;;;;;;;;;2612884;54;20403;-73
2023/08/31 11:15:47;;;;;;;13.27;7.97;;;;;;;;;;2612857;54;20446;-73
2023/08/31 11:18:17;;;;;;;7.53;7.13;;;;;;;;;;2608062;47;20404;-73
2023/08/31 11:20:43;;;;;;;7.83;7.13;;;;;;;;;;2612006;54;20407;-73
2023/08/31 11:23:10;;;;;;;6.70;6.30;;;;;;;;;;2612429;54;20412;-72
2023/08/31 11:25:36;;;;;;;8.53;8.03;;;;;;;;;;2612844;54;20427;-73
2023/08/31 11:28:07;;;;;;;8.20;7.60;;;;;;;;;;2612355;54;20472;-73
2023/08/31 11:30:34;;;;;;;8.30;7.60;;;;;;;;;;2608769;39;20833;-73
2023/08/31 11:33:07;;;;;;;8.40;7.60;;;;;;;;;;2608877;54;20427;-73
2023/08/31 11:35:34;;;;;;;7.77;7.27;;;;;;;;;;2609590;54;20416;-73
2023/08/31 11:38:00;;;;;;;8.73;8.20;;;;;;;;;;2610396;54;20424;-73
2023/08/31 11:40:27;;;;;;;7.63;7.03;;;;;;;;;;2609403;54;20423;-72
2023/08/31 11:42:53;;;;;;;7.80;7.10;;;;;;;;;;2609633;31;20868;-72
2023/08/31 11:45:20;;;;;;;10.63;7.90;;;;;;;;;;2609530;54;20463;-72
2023/08/31 11:47:48;;;;;;;8.17;7.67;;;;;;;;;;2609578;54;20881;-72
2023/08/31 11:50:15;;;;;;;8.07;7.47;;;;;;;;;;2610187;47;20408;-73
2023/08/31 11:52:41;;;;;;;7.07;6.63;;;;;;;;;;2612758;54;20400;-73
2023/08/31 11:55:12;;;;;;;8.57;7.80;;;;;;;;;;2612522;54;20422;-73
2023/08/31 11:57:38;;;;;;;8.17;7.37;;;;;;;;;;2608398;47;20415;-73
2023/08/31 12:00:05;;;;;;;7.53;7.03;;;;;;;;;;2607584;47;20423;-74
2023/08/31 12:02:38;;;;;;;8.87;8.20;;;;;;;;;;2612030;39;20845;-74
2023/08/31 12:05:07;;;;;;;9.77;8.73;;;;;;;;;;2614247;46;20515;-73
2023/08/31 12:07:40;;;;;;;9.53;8.83;;;;;;;;;;2612674;54;20415;-74
2023/08/31 12:10:06;;;;;;;9.17;8.57;;;;;;;;;;2612200;54;20499;-74
2023/08/31 12:12:34;;;;;;;8.87;8.17;;;;;;;;;;2612626;54;20430;-74
2023/08/31 12:15:03;;;;;;;10.60;9.90;;;;;;;;;;2611765;54;20420;-73
2023/08/31 12:17:30;;;;;;;9.20;8.57;;;;;;;;;;2611809;54;21340;-74
2023/08/31 12:20:07;;;;;;;9.40;8.80;;;;;;;;;;2612540;46;20566;-74
2023/08/31 12:22:33;;;;;;;9.70;9.00;;;;;;;;;;2612069;54;20419;-74
2023/08/31 12:25:01;;;;;;;9.07;8.47;;;;;;;;;;2611603;54;20427;-74
2023/08/31 12:27:27;;;;;;;9.40;8.67;;;;;;;;;;2610932;54;20402;-74
2023/08/31 12:29:55;;;;;;;10.50;9.50;;;;;;;;;;2611581;54;20436;-74
2023/08/31 12:32:21;;;;;;;8.87;8.27;;;;;;;;;;2610745;54;20534;-74
2023/08/31 12:34:48;;;;;;;9.70;9.00;;;;;;;;;;2612794;51;20466;-73
2023/08/31 12:37:14;;;;;;;9.50;8.90;;;;;;;;;;2613222;47;20427;-74
2023/08/31 12:39:44;;;;;;;8.23;7.73;;;;;;;;;;2613602;54;20424;-74
2023/08/31 12:42:10;;;;;;;9.47;8.70;;;;;;;;;;2611583;54;20503;-74
2023/08/31 12:44:37;;;;;;;9.87;9.17;;;;;;;;;;2611646;47;20439;-74
2023/08/31 12:47:09;;;;;;;9.90;9.20;;;;;;;;;;2611427;51;20466;-75
2023/08/31 12:49:35;;;;;;;10.33;9.40;;;;;;;;;;2611307;54;20494;-74
2023/08/31 12:52:02;;;;;;;9.43;8.93;;;;;;;;;;2611840;49;20426;-74
2023/08/31 12:54:28;;;;;;;9.60;9.07;;;;;;;;;;2613569;46;20416;-73
2023/08/31 12:56:54;;;;;;;9.27;8.53;;;;;;;;;;2614194;54;21101;-74
2023/08/31 12:59:21;;;;;;;11.13;10.23;;;;;;;;;;2612854;46;20439;-74
2023/08/31 13:01:48;;;;;;;9.90;9.30;;;;;;;;;;2609937;54;20415;-74
2023/08/31 13:04:14;;;;;;;9.50;8.70;;;;;;;;;;2610946;54;20442;-74
2023/08/31 13:06:47;;;;;;;10.07;9.37;;;;;;;;;;2611467;54;21002;-74
2023/08/31 13:09:13;;;;;;;9.63;9.00;;;;;;;;;;2611141;47;20447;-74
2023/08/31 13:11:39;;;;;;;9.57;9.07;;;;;;;;;;2609259;39;21141;-72
2023/08/31 13:14:05;;;;;;;10.57;9.93;;;;;;;;;;2609171;54;20487;-72
2023/08/31 13:16:32;;;;;;;9.70;9.10;;;;;;;;;;2608492;54;20427;-71
2023/08/31 13:18:58;;;;;;;9.60;9.10;;;;;;;;;;2608739;47;20392;-72
2023/08/31 13:21:24;;;;;;;10.07;9.37;;;;;;;;;;2609436;54;20423;-71
2023/08/31 13:23:50;;;;;;;10.00;9.23;;;;;;;;;;2608952;47;20410;-71
2023/08/31 13:26:16;;;;;;;11.57;8.93;;;;;;;;;;2609424;54;20415;-72
2023/08/31 13:28:43;;;;;;;10.17;9.67;;;;;;;;;;2609823;54;20982;-73
2023/08/31 13:31:09;;;;;;;10.80;10.20;;;;;;;;;;2609751;54;20423;-71
2023/08/31 13:33:35;;;;;;;11.10;10.20;;;;;;;;;;2609024;54;20399;-72
2023/08/31 13:36:01;;;;;;;10.57;9.70;;;;;;;;;;2609668;54;20503;-69
2023/08/31 13:38:27;;;;;;;9.67;8.97;;;;;;;;;;2610280;54;20430;-72
2023/08/31 13:40:58;;;;;;;9.50;9.00;;;;;;;;;;2609547;54;20544;-72
2023/08/31 13:43:25;;;;;;;11.27;10.30;;;;;;;;;;2609989;54;20392;-72
2023/08/31 13:45:51;;;;;;;10.70;10.10;;;;;;;;;;2608697;54;20422;-73
2023/08/31 13:48:17;;;;;;;10.87;10.30;;;;;;;;;;2609732;54;20986;-71
2023/08/31 13:50:43;;;;;;;11.80;10.80;;;;;;;;;;2607987;54;20396;-71
2023/08/31 13:53:10;;;;;;;10.83;10.23;;;;;;;;;;2609496;54;20427;-73
2023/08/31 13:55:36;;;;;;;10.70;10.20;;;;;;;;;;2608731;47;20464;-73
2023/08/31 13:58:06;;;;;;;11.63;10.67;;;;;;;;;;2609645;54;20420;-71
2023/08/31 14:00:33;;;;;;;12.00;11.20;;;;;;;;;;2609192;54;20415;-73
2023/08/31 14:03:02;;;;;;;9.77;9.17;;;;;;;;;;2609046;54;20433;-73
2023/08/31 14:05:29;;;;;;;10.40;9.80;;;;;;;;;;2610351;54;20415;-73
2023/08/31 14:07:57;;;;;;;10.70;10.10;;;;;;;;;;2610369;54;20400;-73
2023/08/31 14:10:24;;;;;;;11.60;10.90;;;;;;;;;;2609988;54;20448;-73
2023/08/31 14:12:50;;;;;;;11.77;10.97;;;;;;;;;;2610134;54;20435;-73
2023/08/31 14:15:16;;;;;;;10.60;10.00;;;;;;;;;;2609352;47;20426;-73
2023/08/31 14:17:42;;;;;;;10.97;10.33;;;;;;;;;;2609367;54;20404;-73
2023/08/31 14:20:09;;;;;;;10.60;9.90;;;;;;;;;;2608225;54;20407;-73
2023/08/31 14:22:36;;;;;;;11.00;10.30;;;;;;;;;;2607790;54;20427;-73
2023/08/31 14:25:03;;;;;;;11.00;10.30;;;;;;;;;;2609059;39;20824;-74
2023/08/31 14:27:30;;;;;;;10.20;9.40;;;;;;;;;;2607295;54;20415;-74
2023/08/31 14:29:57;;;;;;;8.90;8.30;;;;;;;;;;2607523;47;20431;-74
2023/08/31 14:32:23;;;;;;;5.20;4.70;;;;;;;;;;2609351;54;20968;-73
2023/08/31 14:34:49;;;;;;;9.83;6.20;;;;;;;;;;2609827;54;20993;-73